createdAt,value
2022-09-01T00:00:18.720Z,6.05
2022-09-01T00:02:52.313Z,6.18
2022-09-01T00:05:19.132Z,7.30
2022-09-01T00:07:52.287Z,6.88
2022-09-01T00:10:19.102Z,6.63
2022-09-01T00:12:52.279Z,6.72
2022-09-01T00:15:19.000Z,5.63
2022-09-01T00:17:52.283Z,6.30
2022-09-01T00:20:25.272Z,6.88
2022-09-01T00:22:58.256Z,6.55
2022-09-01T00:25:45.256Z,6.53
2022-09-01T00:28:12.034Z,6.70
2022-09-01T00:30:45.313Z,6.50
2022-09-01T00:33:18.258Z,6.82
2022-09-01T00:35:52.257Z,5.93
2022-09-01T00:38:25.284Z,6.47
2022-09-01T00:40:52.778Z,7.05
2022-09-01T00:43:54.282Z,6.60
2022-09-01T00:46:31.298Z,6.50
2022-09-01T00:49:21.238Z,7.07
2022-09-01T00:52:00.290Z,7.20
2022-09-01T00:54:32.137Z,7.30
2022-09-01T00:57:06.263Z,6.47
2022-09-01T00:59:33.176Z,6.45
2022-09-01T01:02:06.308Z,6.63
2022-09-01T01:04:33.068Z,6.55
2022-09-01T01:07:10.291Z,6.70
2022-09-01T01:09:44.844Z,6.97
2022-09-01T01:12:20.256Z,6.75
2022-09-01T01:14:50.463Z,7.53
2022-09-01T01:17:25.251Z,7.53
2022-09-01T01:20:14.128Z,7.15
2022-09-01T01:23:08.261Z,6.05
2022-09-01T01:26:01.279Z,5.88
2022-09-01T01:28:45.264Z,5.88
2022-09-01T01:31:18.493Z,5.88
2022-09-01T01:33:59.249Z,5.65
2022-09-01T01:36:40.249Z,6.30
2022-09-01T01:39:16.241Z,5.10
2022-09-01T01:41:55.273Z,5.63
2022-09-01T01:44:28.341Z,5.43
2022-09-01T01:47:04.243Z,4.97
2022-09-01T01:49:31.159Z,5.03
2022-09-01T01:52:06.236Z,5.88
2022-09-01T01:54:42.314Z,6.10
2022-09-01T01:57:15.233Z,5.78
2022-09-01T01:59:48.228Z,5.30
2022-09-01T02:02:14.985Z,5.70
2022-09-01T02:04:50.241Z,5.38
2022-09-01T02:07:18.051Z,5.25
2022-09-01T02:09:54.239Z,4.60
2022-09-01T02:12:23.314Z,4.78
2022-09-01T02:14:56.399Z,4.50
2022-09-01T02:17:23.383Z,5.00
2022-09-01T02:19:56.246Z,4.05
2022-09-01T02:22:22.929Z,4.28
2022-09-01T02:24:56.268Z,3.95
2022-09-01T02:27:36.240Z,3.92
2022-09-01T02:30:19.230Z,4.03
2022-09-01T02:32:45.912Z,4.43
2022-09-01T02:35:20.244Z,4.25
2022-09-01T02:37:56.220Z,4.40
2022-09-01T02:40:29.268Z,4.03
2022-09-01T02:43:07.240Z,4.43
2022-09-01T02:45:41.256Z,4.20
2022-09-01T02:48:16.288Z,3.90
2022-09-01T02:50:52.228Z,3.72
2022-09-01T02:53:20.635Z,4.35
2022-09-01T02:55:47.250Z,4.75
2022-09-01T02:58:25.213Z,4.93
2022-09-01T03:00:54.658Z,4.75
2022-09-01T03:03:28.220Z,4.30
2022-09-01T03:05:55.645Z,4.18
2022-09-01T03:08:31.249Z,4.10
2022-09-01T03:11:01.502Z,4.32
2022-09-01T03:13:35.241Z,4.10
2022-09-01T03:16:02.064Z,4.25
2022-09-01T03:18:35.214Z,3.85
2022-09-01T03:21:02.658Z,3.88
2022-09-01T03:23:41.219Z,4.53
2022-09-01T03:26:18.719Z,4.20
2022-09-01T03:28:52.222Z,4.63
2022-09-01T03:31:20.492Z,4.07
2022-09-01T03:33:54.226Z,4.43
2022-09-01T03:36:20.920Z,4.53
2022-09-01T03:38:56.236Z,4.07
2022-09-01T03:41:28.454Z,3.80
2022-09-01T03:44:04.247Z,4.32
2022-09-01T03:46:38.225Z,4.13
2022-09-01T03:49:07.529Z,3.88
2022-09-01T03:51:42.236Z,4.75
2022-09-01T03:54:09.408Z,4.00
2022-09-01T03:56:42.209Z,4.78
2022-09-01T03:59:23.232Z,4.78
2022-09-01T04:01:49.879Z,3.83
2022-09-01T04:04:23.194Z,3.95
2022-09-01T04:06:49.817Z,3.92
2022-09-01T04:09:23.217Z,3.33
2022-09-01T04:11:57.226Z,3.60
2022-09-01T04:14:32.209Z,3.08
2022-09-01T04:17:17.379Z,3.30
2022-09-01T04:19:50.212Z,3.20
2022-09-01T04:22:17.691Z,3.45
2022-09-01T04:24:52.248Z,3.53
2022-09-01T04:27:27.042Z,3.10
2022-09-01T04:30:08.194Z,3.47
2022-09-01T04:32:35.784Z,3.70
2022-09-01T04:35:09.216Z,3.65
2022-09-01T04:37:36.576Z,3.90
2022-09-01T04:40:11.276Z,3.15
2022-09-01T04:42:37.952Z,3.55
2022-09-01T04:45:15.403Z,3.75
2022-09-01T04:47:45.496Z,4.53
2022-09-01T04:50:24.224Z,3.92
2022-09-01T04:52:51.185Z,4.03
2022-09-01T04:55:24.202Z,4.55
2022-09-01T04:57:57.214Z,3.60
2022-09-01T05:00:26.937Z,3.55
2022-09-01T05:03:12.202Z,4.00
2022-09-01T05:05:51.225Z,3.83
2022-09-01T05:08:23.554Z,3.83
2022-09-01T05:11:02.236Z,4.10
2022-09-01T05:13:29.871Z,4.40
2022-09-01T05:16:09.217Z,4.30
2022-09-01T05:18:36.124Z,4.45
2022-09-01T05:21:17.217Z,4.60
2022-09-01T05:23:44.972Z,4.55
2022-09-01T05:26:38.190Z,4.93
2022-09-01T05:29:13.397Z,5.03
2022-09-01T05:31:50.373Z,5.05
2022-09-01T05:34:23.101Z,6.03
2022-09-01T05:36:57.241Z,5.45
2022-09-01T05:39:25.816Z,5.85
2022-09-01T05:42:00.213Z,5.85
2022-09-01T05:44:33.206Z,5.65
2022-09-01T05:47:06.203Z,6.47
2022-09-01T05:49:40.224Z,6.35
2022-09-01T05:52:16.184Z,6.40
2022-09-01T05:54:42.928Z,6.93
2022-09-01T05:57:33.841Z,6.50
2022-09-01T06:00:17.238Z,6.35
2022-09-01T06:02:45.287Z,6.82
2022-09-01T06:05:20.218Z,6.63
2022-09-01T06:07:47.217Z,5.75
2022-09-01T06:10:21.309Z,5.75
2022-09-01T06:12:50.505Z,5.30
2022-09-01T06:15:27.203Z,4.70
2022-09-01T06:17:54.641Z,4.53
2022-09-01T06:20:23.005Z,3.60
2022-09-01T06:22:56.200Z,3.45
2022-09-01T06:25:30.196Z,3.55
2022-09-01T06:28:18.224Z,3.63
2022-09-01T06:30:52.257Z,3.22
2022-09-01T06:33:19.469Z,3.60
2022-09-01T06:35:54.194Z,3.63
2022-09-01T06:38:21.061Z,3.72
2022-09-01T06:40:55.256Z,3.20
2022-09-01T06:43:29.200Z,3.53
2022-09-01T06:45:55.940Z,2.67
2022-09-01T06:48:30.295Z,2.53
2022-09-01T06:51:20.968Z,2.50
2022-09-01T06:54:03.248Z,3.25
2022-09-01T06:56:44.944Z,3.40
2022-09-01T06:59:25.193Z,2.92
2022-09-01T07:02:01.355Z,3.20
2022-09-01T07:04:37.181Z,3.40
2022-09-01T07:13:05.998Z,4.80
2022-09-01T07:16:32.053Z,4.90
2022-09-01T07:18:34.187Z,5.57
2022-09-01T07:21:36.115Z,3.58
2022-09-01T07:27:07.686Z,3.42
2022-09-01T07:29:41.769Z,3.13
2022-09-01T07:35:14.210Z,2.30
2022-09-01T07:42:30.447Z,3.30
2022-09-01T07:42:59.050Z,2.30
2022-09-01T07:43:34.189Z,2.35
2022-09-01T07:49:29.515Z,2.80
2022-09-01T07:51:51.363Z,2.10
2022-09-01T07:54:24.245Z,2.20
2022-09-01T07:56:50.845Z,2.00
2022-09-01T07:59:25.189Z,2.50
2022-09-01T08:01:52.459Z,2.33
2022-09-01T08:04:29.186Z,2.22
2022-09-01T08:09:37.431Z,1.73
2022-09-01T08:12:06.012Z,1.83
2022-09-01T08:14:41.188Z,2.17
2022-09-01T08:17:18.267Z,2.13
2022-09-01T08:20:08.216Z,3.42
2022-09-01T08:22:38.205Z,3.38
2022-09-01T08:25:16.352Z,2.63
2022-09-01T08:28:02.916Z,2.35
2022-09-01T08:30:32.546Z,2.38
2022-09-01T08:33:10.773Z,1.90
2022-09-01T08:35:55.156Z,1.92
2022-09-01T08:38:21.913Z,1.40
2022-09-01T08:41:04.266Z,1.65
2022-09-01T08:43:34.212Z,1.75
2022-09-01T08:46:23.267Z,1.33
2022-09-01T08:49:24.761Z,1.45
2022-09-01T08:52:31.176Z,1.40
2022-09-01T08:55:18.263Z,1.23
2022-09-01T08:57:59.049Z,1.20
2022-09-01T09:00:43.166Z,1.15
2022-09-01T09:03:42.922Z,0.90
2022-09-01T09:06:22.176Z,1.40
2022-09-01T09:09:03.783Z,1.17
2022-09-01T09:11:52.195Z,1.02
2022-09-01T09:14:57.936Z,1.10
2022-09-01T09:17:41.165Z,1.10
2022-09-01T09:20:09.235Z,1.05
2022-09-01T09:22:36.188Z,1.00
2022-09-01T09:25:19.490Z,1.40
2022-09-01T09:28:06.157Z,0.88
2022-09-01T09:30:40.200Z,1.30
2022-09-01T09:33:49.778Z,1.10
2022-09-01T09:36:38.154Z,1.08
2022-09-01T09:39:23.178Z,1.10
2022-09-01T09:42:19.623Z,1.35
2022-09-01T09:44:59.173Z,1.27
2022-09-01T09:47:49.569Z,1.10
2022-09-01T09:50:31.349Z,1.13
2022-09-01T09:53:23.169Z,1.00
2022-09-01T09:56:18.115Z,0.90
2022-09-01T09:58:54.162Z,0.80
2022-09-01T10:01:24.524Z,1.15
2022-09-01T10:04:01.201Z,1.20
2022-09-01T10:09:22.969Z,1.10
2022-09-01T10:11:59.144Z,1.20
2022-09-01T10:14:52.132Z,1.20
2022-09-01T10:18:19.665Z,1.10
2022-09-01T10:20:48.952Z,0.95
2022-09-01T10:23:23.175Z,1.23
2022-09-01T10:25:51.223Z,0.80
2022-09-01T10:28:32.147Z,0.77
2022-09-01T10:30:59.770Z,0.80
2022-09-01T10:33:33.191Z,0.85
2022-09-01T10:36:00.573Z,0.80
2022-09-01T10:38:36.142Z,0.95
2022-09-01T10:41:10.089Z,1.00
2022-09-01T10:43:59.667Z,0.82
2022-09-01T10:46:38.628Z,0.90
2022-09-01T10:49:27.731Z,0.70
2022-09-01T10:52:11.363Z,1.02
2022-09-01T10:54:55.829Z,0.63
2022-09-01T10:57:51.187Z,0.93
2022-09-01T11:01:10.458Z,0.98
2022-09-01T11:06:14.166Z,0.73
2022-09-01T11:08:50.740Z,0.63
2022-09-01T11:11:42.207Z,0.60
2022-09-01T11:14:19.968Z,0.90
2022-09-01T11:17:32.234Z,0.60
2022-09-01T11:20:22.298Z,0.80
2022-09-01T11:23:18.161Z,0.90
2022-09-01T11:26:30.213Z,0.77
2022-09-01T11:29:03.327Z,0.70
2022-09-01T11:31:50.206Z,1.00
2022-09-01T11:34:20.165Z,0.82
2022-09-01T11:36:59.141Z,0.65
2022-09-01T11:39:50.208Z,0.80
2022-09-01T11:42:28.138Z,1.42
2022-09-01T11:45:03.412Z,1.10
2022-09-01T11:47:51.199Z,0.90
2022-09-01T11:50:32.206Z,1.35
2022-09-01T11:53:14.118Z,1.30
2022-09-01T11:55:49.196Z,1.17
2022-09-01T11:58:34.139Z,1.08
2022-09-01T12:01:24.158Z,0.98
2022-09-01T12:03:52.904Z,1.25
2022-09-01T12:06:33.161Z,1.20
2022-09-01T12:09:04.148Z,1.60
2022-09-01T12:11:41.184Z,0.90
2022-09-01T12:14:12.005Z,1.30
2022-09-01T12:16:49.164Z,1.20
2022-09-01T12:19:36.162Z,1.10
2022-09-01T12:22:13.634Z,1.30
2022-09-01T12:24:52.126Z,0.90
2022-09-01T12:27:26.255Z,1.30
2022-09-01T12:30:06.165Z,1.27
2022-09-01T12:32:33.540Z,1.42
2022-09-01T12:35:11.540Z,0.85
2022-09-01T12:37:45.133Z,1.20
2022-09-01T12:40:30.906Z,1.33
2022-09-01T12:43:04.138Z,1.60
2022-09-01T12:45:42.008Z,1.35
2022-09-01T12:48:44.730Z,1.20
2022-09-01T12:51:25.517Z,1.10
2022-09-01T12:54:04.904Z,1.20
2022-09-01T12:56:39.181Z,1.23
2022-09-01T12:59:23.371Z,1.20
2022-09-01T13:02:40.224Z,1.23
2022-09-01T13:05:32.693Z,1.00
2022-09-01T13:08:13.033Z,0.90
2022-09-01T13:10:50.187Z,0.70
2022-09-01T13:13:18.009Z,0.95
2022-09-01T13:15:57.220Z,1.00
2022-09-01T13:18:25.716Z,1.23
2022-09-01T13:21:00.132Z,1.00
2022-09-01T13:23:27.145Z,1.60
2022-09-01T13:26:00.144Z,1.08
2022-09-01T13:28:41.161Z,0.90
2022-09-01T13:34:20.528Z,0.93
2022-09-01T13:36:54.104Z,0.70
2022-09-01T13:39:22.727Z,0.90
2022-09-01T13:41:56.140Z,1.10
2022-09-01T13:44:29.276Z,1.13
2022-09-01T13:47:28.699Z,1.00
2022-09-01T13:50:11.964Z,1.08
2022-09-01T13:52:42.269Z,0.90
2022-09-01T13:55:19.097Z,0.85
2022-09-01T13:57:45.965Z,1.13
2022-09-01T14:00:24.122Z,1.13
2022-09-01T14:02:54.299Z,0.80
2022-09-01T14:05:37.111Z,0.80
2022-09-01T14:08:06.321Z,0.70
2022-09-01T14:10:44.124Z,0.90
2022-09-01T14:13:12.313Z,0.70
2022-09-01T14:15:46.146Z,0.63
2022-09-01T14:18:21.183Z,0.90
2022-09-01T14:20:57.104Z,0.75
2022-09-01T14:23:23.835Z,0.80
2022-09-01T14:25:58.119Z,0.50
2022-09-01T14:28:38.134Z,0.80
2022-09-01T14:31:10.045Z,0.65
2022-09-01T14:33:45.191Z,0.60
2022-09-01T14:36:22.183Z,0.75
2022-09-01T14:38:57.104Z,0.70
2022-09-01T14:41:32.139Z,0.60
2022-09-01T14:44:03.312Z,0.68
2022-09-01T14:46:41.335Z,0.60
2022-09-01T14:49:08.266Z,0.65
2022-09-01T14:54:30.356Z,0.57
2022-09-01T14:59:56.272Z,0.88
2022-09-01T15:02:32.215Z,0.80
2022-09-01T15:04:59.222Z,0.65
2022-09-01T15:07:33.093Z,0.60
2022-09-01T15:09:59.815Z,0.60
2022-09-01T15:12:37.137Z,1.20
2022-09-01T15:15:06.731Z,0.90
2022-09-01T15:17:42.263Z,0.73
2022-09-01T15:20:37.092Z,0.82
2022-09-01T15:23:04.642Z,0.50
2022-09-01T15:25:31.770Z,0.75
2022-09-01T15:28:07.150Z,0.70
2022-09-01T15:30:41.275Z,0.60
2022-09-01T15:33:16.359Z,1.23
2022-09-01T15:35:44.861Z,0.70
2022-09-01T15:38:18.381Z,0.70
2022-09-01T15:40:57.059Z,0.60
2022-09-01T15:43:33.179Z,0.77
2022-09-01T15:46:02.010Z,0.88
2022-09-01T15:48:29.601Z,0.50
2022-09-01T15:51:31.260Z,0.60
2022-09-01T15:54:10.402Z,0.60
2022-09-01T15:56:44.109Z,0.57
2022-09-01T15:59:11.641Z,0.65
2022-09-01T16:01:48.134Z,0.60
2022-09-01T16:07:03.154Z,0.55
2022-09-01T16:09:36.107Z,0.68
2022-09-01T16:12:11.229Z,0.70
2022-09-01T16:14:37.954Z,0.50
2022-09-01T16:17:24.137Z,0.70
2022-09-01T16:20:03.569Z,0.50
2022-09-01T16:22:35.864Z,0.70
2022-09-01T16:25:24.157Z,0.70
2022-09-01T16:27:58.661Z,0.77
2022-09-01T16:30:34.777Z,0.70
2022-09-01T16:33:10.145Z,0.63
2022-09-01T16:36:10.100Z,0.90
2022-09-01T16:39:09.125Z,0.95
2022-09-01T16:41:48.753Z,0.50
2022-09-01T16:44:41.096Z,0.60
2022-09-01T16:47:25.132Z,0.50
2022-09-01T16:50:30.089Z,0.90
2022-09-01T16:53:25.517Z,0.80
2022-09-01T16:56:08.287Z,0.90
2022-09-01T16:58:35.180Z,0.93
2022-09-01T17:01:08.290Z,0.95
2022-09-01T17:04:03.114Z,0.70
2022-09-01T17:06:43.132Z,1.05
2022-09-01T17:09:20.020Z,0.70
2022-09-01T17:12:00.105Z,0.80
2022-09-01T17:14:51.123Z,0.82
2022-09-01T17:17:32.173Z,0.60
2022-09-01T17:19:59.145Z,0.93
2022-09-01T17:22:32.114Z,0.90
2022-09-01T17:28:05.103Z,0.93
2022-09-01T17:30:44.927Z,0.93
2022-09-01T17:33:57.082Z,0.80
2022-09-01T17:36:49.793Z,0.90
2022-09-01T17:39:56.090Z,0.77
2022-09-01T17:42:50.766Z,0.90
2022-09-01T17:45:38.085Z,1.10
2022-09-01T17:48:25.070Z,1.00
2022-09-01T17:51:11.989Z,1.10
2022-09-01T17:53:45.066Z,0.90
2022-09-01T17:56:36.038Z,1.15
2022-09-01T17:59:22.095Z,0.77
2022-09-01T18:02:13.070Z,1.03
2022-09-01T18:05:00.534Z,0.75
2022-09-01T18:07:40.086Z,0.90
2022-09-01T18:10:14.543Z,0.82
2022-09-01T18:12:50.074Z,1.08
2022-09-01T18:15:29.080Z,0.88
2022-09-01T18:18:19.978Z,0.70
2022-09-01T18:20:55.093Z,1.02
2022-09-01T18:23:22.099Z,1.00
2022-09-01T18:26:09.086Z,1.00
2022-09-01T18:31:26.375Z,1.30
2022-09-01T18:34:17.070Z,1.65
2022-09-01T18:36:59.070Z,1.48
2022-09-01T18:39:41.163Z,1.67
2022-09-01T18:42:45.059Z,1.20
2022-09-01T18:45:50.047Z,1.55
2022-09-01T18:48:48.065Z,1.33
2022-09-01T18:51:31.104Z,1.35
2022-09-01T18:54:13.029Z,1.67
2022-09-01T18:57:03.208Z,1.55
2022-09-01T19:00:00.792Z,2.08
2022-09-01T19:03:03.217Z,1.60
2022-09-01T19:05:46.539Z,1.67
2022-09-01T19:08:45.055Z,1.15
2022-09-01T19:11:20.719Z,1.63
2022-09-01T19:14:19.192Z,1.70
2022-09-01T19:17:04.696Z,1.33
2022-09-01T19:19:53.062Z,1.35
2022-09-01T19:22:30.289Z,1.40
2022-09-01T19:25:28.055Z,1.75
2022-09-01T19:28:32.061Z,1.67
2022-09-01T19:31:26.989Z,1.90
2022-09-01T19:34:04.097Z,1.77
2022-09-01T19:37:02.070Z,2.03
2022-09-01T19:39:37.053Z,1.35
2022-09-01T19:42:12.784Z,1.90
2022-09-01T19:45:20.086Z,1.90
2022-09-01T19:48:08.130Z,1.52
2022-09-01T19:50:59.064Z,1.92
2022-09-01T19:53:37.519Z,1.80
2022-09-01T19:56:23.180Z,1.58
2022-09-01T19:59:24.029Z,2.00
2022-09-01T20:02:03.533Z,1.42
2022-09-01T20:04:55.669Z,2.17
2022-09-01T20:07:28.919Z,1.73
2022-09-01T20:10:27.060Z,1.98
2022-09-01T20:13:12.449Z,1.50
2022-09-01T20:15:48.116Z,1.95
2022-09-01T20:18:40.048Z,1.80
2022-09-01T20:21:18.821Z,2.42
2022-09-01T20:24:02.044Z,1.40
2022-09-01T20:26:42.191Z,1.67
2022-09-01T20:29:31.068Z,1.95
2022-09-01T20:32:12.115Z,1.65
2022-09-01T20:35:05.056Z,1.27
2022-09-01T20:37:44.054Z,1.23
2022-09-01T20:40:30.790Z,1.30
2022-09-01T20:43:11.041Z,1.40
2022-09-01T20:45:38.970Z,1.23
2022-09-01T20:48:21.048Z,1.30
2022-09-01T20:51:19.050Z,1.38
2022-09-01T20:54:22.046Z,1.10
2022-09-01T20:57:15.139Z,1.38
2022-09-01T21:00:00.017Z,1.60
2022-09-01T21:03:01.782Z,1.30
2022-09-01T21:05:50.032Z,1.50
2022-09-01T21:08:29.200Z,1.35
2022-09-01T21:11:19.046Z,1.40
2022-09-01T21:14:07.272Z,1.23
2022-09-01T21:17:19.045Z,1.77
2022-09-01T21:20:33.077Z,1.55
2022-09-01T21:23:00.449Z,1.67
2022-09-01T21:25:35.035Z,1.80
2022-09-01T21:28:13.046Z,2.80
2022-09-01T21:30:40.040Z,2.28
2022-09-01T21:33:14.230Z,2.50
2022-09-01T21:35:41.022Z,2.15
2022-09-01T21:38:15.017Z,2.10
2022-09-01T21:40:42.446Z,1.90
2022-09-01T21:43:22.152Z,1.80
2022-09-01T21:45:49.665Z,1.48
2022-09-01T21:48:23.069Z,1.13
2022-09-01T21:50:57.023Z,1.20
2022-09-01T21:53:24.471Z,1.23
2022-09-01T21:55:58.029Z,1.20
2022-09-01T21:58:31.008Z,1.15
2022-09-01T22:01:05.113Z,1.10
2022-09-01T22:03:31.873Z,1.08
2022-09-01T22:06:05.143Z,0.88
2022-09-01T22:08:32.063Z,1.70
2022-09-01T22:11:05.016Z,1.00
2022-09-01T22:13:38.039Z,1.05
2022-09-01T22:16:05.108Z,1.02
2022-09-01T22:18:39.040Z,1.00
2022-09-01T22:21:15.045Z,1.70
2022-09-01T22:23:42.755Z,1.67
2022-09-01T22:26:17.042Z,1.42
2022-09-01T22:28:50.176Z,2.00
2022-09-01T22:31:32.052Z,1.90
2022-09-01T22:34:07.035Z,1.73
2022-09-01T22:36:39.532Z,1.60
2022-09-01T22:39:15.041Z,1.70
2022-09-01T22:41:42.228Z,1.27
2022-09-01T22:44:17.010Z,1.67
2022-09-01T22:46:44.166Z,1.33
2022-09-01T22:49:11.842Z,1.20
2022-09-01T22:51:48.024Z,1.50
2022-09-01T22:54:14.871Z,1.50
2022-09-01T22:56:42.362Z,1.10
2022-09-01T22:59:20.073Z,1.00
2022-09-01T23:01:54.044Z,1.10
2022-09-01T23:04:28.039Z,1.05
2022-09-01T23:07:01.005Z,1.13
2022-09-01T23:09:34.004Z,0.77
2022-09-01T23:12:01.187Z,0.90
2022-09-01T23:14:35.008Z,0.82
2022-09-01T23:17:02.056Z,0.88
2022-09-01T23:19:35.011Z,1.00
2022-09-01T23:22:03.228Z,1.10
2022-09-01T23:24:36.035Z,1.05
2022-09-01T23:27:10.234Z,1.48
2022-09-01T23:29:44.102Z,1.17
2022-09-01T23:32:24.017Z,1.25
2022-09-01T23:34:58.002Z,1.13
2022-09-01T23:37:31.041Z,1.40
2022-09-01T23:40:04.035Z,1.20
2022-09-01T23:42:38.015Z,1.27
2022-09-01T23:45:05.964Z,1.17
2022-09-01T23:47:39.043Z,1.20
2022-09-01T23:50:08.595Z,1.10
2022-09-01T23:52:35.424Z,1.20
2022-09-01T23:55:09.006Z,1.55
2022-09-01T23:57:42.022Z,1.83
